createdAt,value
2022-10-12T00:05:01.062Z,90.50
2022-10-12T00:10:05.530Z,90.86
2022-10-12T00:15:08.593Z,90.89
2022-10-12T00:20:11.820Z,91.14
2022-10-12T00:25:14.527Z,91.02
2022-10-12T00:30:17.237Z,91.35
2022-10-12T00:35:19.809Z,91.06
2022-10-12T00:40:23.352Z,91.52
2022-10-12T00:45:27.077Z,91.22
2022-10-12T00:50:35.482Z,91.77
2022-10-12T00:55:44.709Z,91.47
2022-10-12T01:00:47.498Z,91.62
2022-10-12T01:05:50.398Z,91.19
2022-10-12T01:10:53.022Z,91.49
2022-10-12T01:16:25.388Z,91.22
2022-10-12T01:21:28.684Z,91.84
2022-10-12T01:26:39.940Z,91.70
2022-10-12T01:31:53.088Z,92.02
2022-10-12T01:37:11.725Z,91.68
2022-10-12T01:42:20.406Z,91.70
2022-10-12T01:47:23.060Z,91.18
2022-10-12T01:52:32.224Z,91.06
2022-10-12T01:58:01.116Z,91.53
2022-10-12T02:03:17.317Z,91.46
2022-10-12T02:08:26.440Z,91.42
2022-10-12T02:13:33.175Z,91.01
2022-10-12T02:18:40.706Z,91.10
2022-10-12T02:23:45.725Z,90.89
2022-10-12T02:28:50.639Z,91.43
2022-10-12T02:34:13.532Z,91.43
2022-10-12T02:39:45.900Z,91.61
2022-10-12T02:44:49.322Z,91.39
2022-10-12T02:49:53.794Z,91.62
2022-10-12T02:54:56.465Z,91.08
2022-10-12T02:59:59.053Z,91.60
2022-10-12T03:05:01.644Z,91.49
2022-10-12T03:10:05.817Z,91.83
2022-10-12T03:15:08.629Z,91.89
2022-10-12T03:20:11.582Z,91.56
2022-10-12T03:25:14.634Z,91.31
2022-10-12T03:30:17.394Z,90.79
2022-10-12T03:35:19.965Z,91.37
2022-10-12T03:40:22.604Z,90.58
2022-10-12T03:45:25.201Z,90.87
2022-10-12T03:50:27.914Z,91.27
2022-10-12T03:55:31.588Z,91.00
2022-10-12T04:00:34.368Z,90.53
2022-10-12T04:05:36.984Z,90.97
2022-10-12T04:10:39.605Z,90.61
2022-10-12T04:15:42.161Z,90.83
2022-10-12T04:20:48.097Z,91.26
2022-10-12T04:25:50.774Z,90.37
2022-10-12T04:30:53.418Z,90.30
2022-10-12T04:35:56.270Z,90.12
2022-10-12T04:40:59.010Z,89.51
2022-10-12T04:46:01.656Z,89.27
2022-10-12T04:51:11.632Z,88.99
2022-10-12T04:56:14.511Z,89.04
2022-10-12T05:01:17.184Z,88.84
2022-10-12T05:06:19.797Z,89.05
2022-10-12T05:11:22.366Z,88.18
2022-10-12T05:16:25.277Z,87.42
2022-10-12T05:21:27.952Z,87.42
2022-10-12T05:26:30.543Z,86.85
2022-10-12T05:31:33.157Z,86.84
2022-10-12T05:36:35.824Z,86.14
2022-10-12T05:41:38.809Z,86.13
2022-10-12T05:46:41.374Z,85.56
2022-10-12T05:51:44.178Z,85.18
2022-10-12T05:56:46.948Z,84.39
2022-10-12T06:01:50.107Z,84.81
2022-10-12T06:06:52.808Z,84.39
2022-10-12T06:11:55.437Z,83.46
2022-10-12T06:16:58.136Z,82.54
2022-10-12T06:22:00.743Z,81.73
2022-10-12T06:27:03.410Z,81.59
2022-10-12T06:32:06.079Z,80.56
2022-10-12T06:37:16.401Z,79.68
2022-10-12T06:42:31.737Z,78.70
2022-10-12T06:47:34.421Z,78.09
2022-10-12T06:52:37.622Z,76.29
2022-10-12T06:57:40.544Z,74.38
2022-10-12T07:02:43.143Z,72.69
2022-10-12T07:07:46.003Z,70.48
2022-10-12T07:12:48.664Z,69.20
2022-10-12T07:17:51.283Z,67.11
2022-10-12T07:22:53.931Z,65.71
2022-10-12T07:27:56.857Z,64.98
2022-10-12T07:32:59.483Z,64.10
2022-10-12T07:38:03.008Z,63.98
2022-10-12T07:43:15.680Z,64.08
2022-10-12T07:48:19.589Z,64.80
2022-10-12T07:53:22.205Z,64.47
2022-10-12T07:58:24.904Z,64.07
2022-10-12T08:03:27.541Z,63.34
2022-10-12T08:08:30.245Z,63.17
2022-10-12T08:13:33.860Z,63.10
2022-10-12T08:18:36.584Z,63.18
2022-10-12T08:23:40.512Z,62.20
2022-10-12T08:28:43.694Z,62.26
2022-10-12T08:33:46.610Z,61.90
2022-10-12T08:38:55.027Z,61.47
2022-10-12T08:44:19.763Z,61.23
2022-10-12T08:49:25.355Z,60.94
2022-10-12T08:54:35.541Z,60.43
2022-10-12T08:59:38.188Z,59.33
2022-10-12T09:04:49.734Z,58.07
2022-10-12T09:10:12.517Z,57.19
2022-10-12T09:15:20.224Z,57.48
2022-10-12T09:20:50.793Z,56.72
2022-10-12T09:26:06.890Z,57.63
2022-10-12T09:31:40.257Z,56.94
2022-10-12T09:36:43.467Z,55.59
2022-10-12T09:41:48.920Z,55.57
2022-10-12T09:47:06.419Z,55.84
2022-10-12T09:52:10.331Z,56.94
2022-10-12T09:57:21.417Z,58.02
2022-10-12T10:02:26.698Z,58.51
2022-10-12T10:07:34.662Z,57.86
2022-10-12T10:13:01.737Z,56.44
2022-10-12T10:18:30.467Z,57.25
2022-10-12T10:23:42.537Z,56.99
2022-10-12T10:28:46.380Z,54.55
2022-10-12T10:34:09.957Z,56.88
2022-10-12T10:39:22.658Z,58.10
2022-10-12T10:44:33.850Z,58.14
2022-10-12T10:49:44.386Z,57.71
2022-10-12T10:55:05.642Z,58.09
2022-10-12T11:05:50.555Z,59.44
2022-10-12T11:10:56.335Z,60.20
2022-10-12T11:16:05.310Z,60.81
2022-10-12T11:21:14.508Z,61.85
2022-10-12T11:26:38.526Z,62.33
2022-10-12T11:31:59.147Z,63.62
2022-10-12T11:37:19.978Z,64.78
2022-10-12T11:42:43.068Z,65.87
2022-10-12T11:47:51.580Z,65.49
2022-10-12T11:52:56.677Z,66.50
2022-10-12T11:58:13.136Z,67.37
2022-10-12T12:03:45.743Z,68.25
2022-10-12T12:08:48.245Z,69.32
2022-10-12T12:13:50.994Z,69.15
2022-10-12T12:19:17.772Z,69.65
2022-10-12T12:24:20.515Z,70.30
2022-10-12T12:29:28.333Z,72.20
2022-10-12T12:34:31.026Z,72.30
2022-10-12T12:39:35.145Z,72.39
2022-10-12T12:44:37.673Z,72.98
2022-10-12T12:49:40.525Z,74.03
2022-10-12T12:55:08.201Z,74.90
2022-10-12T13:06:41.003Z,76.44
2022-10-12T13:12:05.269Z,76.95
2022-10-12T13:17:31.993Z,78.13
2022-10-12T13:22:35.378Z,79.24
2022-10-12T13:27:48.869Z,80.52
2022-10-12T13:33:02.519Z,81.87
2022-10-12T13:38:14.192Z,83.00
2022-10-12T13:43:26.806Z,84.00
2022-10-12T13:48:59.287Z,84.49
2022-10-12T13:53:55.766Z,84.58
2022-10-12T13:59:05.581Z,85.30
2022-10-12T14:04:11.756Z,84.72
2022-10-12T14:09:21.798Z,85.99
2022-10-12T14:14:29.106Z,85.62
2022-10-12T14:19:53.353Z,85.81
2022-10-12T14:25:09.157Z,85.94
2022-10-12T14:30:19.632Z,86.15
2022-10-12T14:35:32.566Z,85.64
2022-10-12T14:40:40.652Z,86.74
2022-10-12T14:45:43.269Z,86.99
2022-10-12T14:50:46.680Z,86.78
2022-10-12T14:55:52.295Z,87.77
2022-10-12T15:00:57.426Z,88.19
2022-10-12T15:06:00.168Z,89.11
2022-10-12T15:11:02.747Z,89.00
2022-10-12T15:16:14.545Z,88.17
2022-10-12T15:21:17.553Z,89.16
2022-10-12T15:26:20.254Z,88.93
2022-10-12T15:31:22.780Z,89.07
2022-10-12T15:36:25.525Z,88.99
2022-10-12T15:41:28.701Z,89.58
2022-10-12T15:46:31.292Z,89.31
2022-10-12T15:51:39.351Z,89.95
2022-10-12T15:56:41.923Z,90.44
2022-10-12T16:01:44.970Z,90.98
2022-10-12T16:06:47.565Z,91.04
2022-10-12T16:11:50.359Z,91.14
2022-10-12T16:16:52.945Z,91.35
2022-10-12T16:21:55.561Z,92.32
2022-10-12T16:26:58.330Z,92.85
2022-10-12T16:32:01.034Z,92.82
2022-10-12T16:37:03.581Z,92.78
2022-10-12T16:42:06.493Z,93.55
2022-10-12T16:47:09.127Z,93.52
2022-10-12T16:52:12.288Z,93.52
2022-10-12T16:57:15.025Z,93.87
2022-10-12T17:02:19.767Z,93.62
2022-10-12T17:07:22.605Z,93.91
2022-10-12T17:12:25.889Z,94.16
2022-10-12T17:17:28.477Z,93.72
2022-10-12T17:22:31.071Z,93.81
2022-10-12T17:27:34.153Z,94.27
2022-10-12T17:32:38.081Z,94.43
2022-10-12T17:37:40.780Z,94.55
2022-10-12T17:42:45.022Z,94.41
2022-10-12T17:47:48.996Z,94.31
2022-10-12T17:52:51.637Z,94.93
2022-10-12T17:57:54.236Z,95.07
2022-10-12T18:02:57.650Z,94.75
2022-10-12T18:08:00.259Z,95.08
2022-10-12T18:13:02.861Z,95.49
2022-10-12T18:18:05.616Z,95.20
2022-10-12T18:23:08.387Z,95.66
2022-10-12T18:28:12.292Z,95.51
2022-10-12T18:33:15.904Z,95.36
2022-10-12T18:38:18.549Z,95.44
2022-10-12T18:43:21.170Z,95.77
2022-10-12T18:48:23.953Z,96.35
2022-10-12T18:53:28.240Z,95.77
2022-10-12T18:58:31.954Z,95.78
2022-10-12T19:03:34.513Z,96.44
2022-10-12T19:08:37.874Z,96.70
2022-10-12T19:13:41.398Z,96.12
2022-10-12T19:18:44.141Z,96.01
2022-10-12T19:23:47.525Z,95.89
2022-10-12T19:28:51.242Z,96.30
2022-10-12T19:33:59.460Z,96.09
2022-10-12T19:39:07.712Z,96.07
2022-10-12T19:44:11.589Z,96.45
2022-10-12T19:49:16.187Z,96.42
2022-10-12T19:54:19.761Z,96.24
2022-10-12T19:59:22.344Z,96.06
2022-10-12T20:04:24.996Z,96.10
2022-10-12T20:09:27.973Z,95.87
2022-10-12T20:14:30.605Z,95.61
2022-10-12T20:19:33.536Z,95.59
2022-10-12T20:24:37.146Z,96.40
2022-10-12T20:29:40.272Z,96.45
2022-10-12T20:34:42.888Z,96.04
2022-10-12T20:39:49.618Z,96.12
2022-10-12T20:44:52.272Z,96.54
2022-10-12T20:49:54.868Z,96.11
2022-10-12T20:54:58.060Z,96.02
2022-10-12T21:00:00.739Z,96.57
2022-10-12T21:05:03.332Z,96.53
2022-10-12T21:10:06.685Z,96.35
2022-10-12T21:15:09.880Z,96.23
2022-10-12T21:20:12.733Z,96.46
2022-10-12T21:25:15.315Z,95.61
2022-10-12T21:30:18.110Z,95.24
2022-10-12T21:35:20.670Z,95.85
2022-10-12T21:40:23.270Z,96.30
2022-10-12T21:45:26.274Z,95.90
2022-10-12T21:50:28.957Z,96.34
2022-10-12T21:55:33.191Z,96.25
2022-10-12T22:00:35.859Z,96.38
2022-10-12T22:05:39.969Z,96.59
2022-10-12T22:10:42.849Z,96.50
2022-10-12T22:15:45.737Z,96.55
2022-10-12T22:20:48.357Z,96.17
2022-10-12T22:25:51.127Z,96.39
2022-10-12T22:30:53.651Z,97.01
2022-10-12T22:35:57.633Z,96.59
2022-10-12T22:41:11.848Z,96.53
2022-10-12T22:46:23.639Z,96.28
2022-10-12T22:51:33.525Z,96.76
2022-10-12T22:56:36.218Z,96.44
2022-10-12T23:01:38.858Z,95.86
2022-10-12T23:06:41.454Z,95.97
2022-10-12T23:11:44.113Z,96.16
2022-10-12T23:16:46.677Z,95.90
2022-10-12T23:21:49.261Z,95.86
2022-10-12T23:26:51.945Z,96.27
2022-10-12T23:31:54.557Z,95.86
2022-10-12T23:36:57.098Z,96.38
2022-10-12T23:41:59.619Z,95.64
2022-10-12T23:47:02.154Z,96.09
2022-10-12T23:52:04.978Z,95.37
2022-10-12T23:57:22.524Z,95.95
